createdAt,value
2022-09-26T00:25:10.481Z,44
2022-09-26T00:55:12.359Z,44.5
2022-09-26T01:29:14.368Z,44.5
2022-09-26T02:01:16.353Z,45.6
2022-09-26T02:31:18.414Z,45.1
2022-09-26T03:02:20.308Z,45.1
2022-09-26T03:34:22.512Z,46.2
2022-09-26T04:05:24.830Z,46.2
2022-09-26T04:35:26.665Z,45.1
2022-09-26T05:05:28.517Z,46.2
2022-09-26T05:36:30.678Z,45.6
2022-09-26T06:06:32.539Z,46.2
2022-09-26T06:36:34.341Z,47.2
2022-09-26T07:06:36.421Z,48.3
2022-09-26T07:36:38.805Z,51
2022-09-26T08:10:40.000Z,52.1
2022-09-26T08:41:42.000Z,50.5
2022-09-26T08:42:42.000Z,51.0
2022-09-26T09:29:45.663Z,55.8
2022-09-26T09:31:45.671Z,55.3
2022-09-26T10:02:47.846Z,55.8
2022-09-26T10:33:49.666Z,54.8
2022-09-26T11:03:51.831Z,56.4
2022-09-26T11:33:53.503Z,54.2
2022-09-26T12:05:55.612Z,60.1
2022-09-26T12:35:58.094Z,48.9
2022-09-26T13:05:59.682Z,52.6
2022-09-26T13:36:01.748Z,57.5
2022-09-26T14:06:03.594Z,53.7
2022-09-26T14:38:05.727Z,49.4
2022-09-26T15:09:07.695Z,51
2022-09-26T15:39:09.624Z,49.9
2022-09-26T16:15:11.953Z,49.9
2022-09-26T16:45:14.014Z,48.9
2022-09-26T17:19:16.395Z,48.3
2022-09-26T17:50:18.076Z,46.7
2022-09-26T18:20:20.120Z,47.2
2022-09-26T18:51:22.053Z,45.6
2022-09-26T19:23:24.197Z,46.2
2022-09-26T19:53:25.990Z,46.2
2022-09-26T20:23:27.911Z,45.6
2022-09-26T20:54:30.136Z,46.2
2022-09-26T21:24:32.016Z,46.7
2022-09-26T21:56:33.872Z,45.6
2022-09-26T22:27:35.959Z,45.6
2022-09-26T22:58:37.997Z,45.1
2022-09-26T23:28:40.071Z,44.5
2022-09-26T23:58:42.122Z,45.1
